createdAt,value
2023-05-04T00:01:39.066Z,18.20
2023-05-04T00:04:08.838Z,18.20
2023-05-04T00:06:39.724Z,18.10
2023-05-04T00:09:08.006Z,17.90
2023-05-04T00:11:43.781Z,17.90
2023-05-04T00:14:11.976Z,17.90
2023-05-04T00:16:41.523Z,17.90
2023-05-04T00:19:10.531Z,17.90
2023-05-04T00:21:39.567Z,17.90
2023-05-04T00:24:09.015Z,17.90
2023-05-04T00:26:42.599Z,17.90
2023-05-04T00:29:11.098Z,17.90
2023-05-04T00:31:40.098Z,17.90
2023-05-04T00:34:10.906Z,17.90
2023-05-04T00:36:39.235Z,18.00
2023-05-04T00:39:07.336Z,18.00
2023-05-04T00:41:35.700Z,18.10
2023-05-04T00:44:06.270Z,18.10
2023-05-04T00:46:35.011Z,18.10
2023-05-04T00:49:03.225Z,18.00
2023-05-04T00:51:31.235Z,18.00
2023-05-04T00:53:59.367Z,17.90
2023-05-04T00:56:29.290Z,17.80
2023-05-04T00:59:26.408Z,17.70
2023-05-04T01:01:54.454Z,17.70
2023-05-04T01:04:22.368Z,17.80
2023-05-04T01:06:58.968Z,17.80
2023-05-04T01:09:36.344Z,17.80
2023-05-04T01:12:08.537Z,17.70
2023-05-04T01:14:39.290Z,17.60
2023-05-04T01:17:09.029Z,17.60
2023-05-04T01:19:37.771Z,17.60
2023-05-04T01:22:08.617Z,17.50
2023-05-04T01:24:36.980Z,17.30
2023-05-04T01:27:09.059Z,17.40
2023-05-04T01:29:47.417Z,17.40
2023-05-04T01:32:19.060Z,17.40
2023-05-04T01:34:48.811Z,17.50
2023-05-04T01:37:21.428Z,17.60
2023-05-04T01:39:49.680Z,17.50
2023-05-04T01:42:31.425Z,17.50
2023-05-04T01:45:00.518Z,17.50
2023-05-04T01:47:31.841Z,17.40
2023-05-04T01:50:01.496Z,17.50
2023-05-04T01:52:37.025Z,17.20
2023-05-04T01:55:06.739Z,16.60
2023-05-04T01:57:35.389Z,16.40
2023-05-04T02:00:04.973Z,16.40
2023-05-04T02:02:44.172Z,16.70
2023-05-04T02:05:17.235Z,16.60
2023-05-04T02:07:47.746Z,16.90
2023-05-04T02:10:16.497Z,17.00
2023-05-04T02:12:44.586Z,17.00
2023-05-04T02:15:13.413Z,17.00
2023-05-04T02:17:42.735Z,17.00
2023-05-04T02:20:11.801Z,17.00
2023-05-04T02:22:44.665Z,16.80
2023-05-04T02:25:14.979Z,16.70
2023-05-04T02:27:43.833Z,16.70
2023-05-04T02:30:16.166Z,16.70
2023-05-04T02:32:44.927Z,16.80
2023-05-04T02:35:13.339Z,16.80
2023-05-04T02:37:41.842Z,16.80
2023-05-04T02:40:10.858Z,16.70
2023-05-04T02:42:41.028Z,16.70
2023-05-04T02:45:09.934Z,16.80
2023-05-04T02:47:38.754Z,16.70
2023-05-04T02:50:08.372Z,16.70
2023-05-04T02:52:40.258Z,16.60
2023-05-04T02:55:09.699Z,16.60
2023-05-04T02:57:41.095Z,16.70
2023-05-04T03:00:10.400Z,16.60
2023-05-04T03:02:38.858Z,16.70
2023-05-04T03:05:07.881Z,16.70
2023-05-04T03:07:35.837Z,16.70
2023-05-04T03:10:04.317Z,16.70
2023-05-04T03:12:32.855Z,16.60
2023-05-04T03:15:03.433Z,16.50
2023-05-04T03:17:31.846Z,16.50
2023-05-04T03:20:00.136Z,16.40
2023-05-04T03:22:30.150Z,16.30
2023-05-04T03:24:58.429Z,16.20
2023-05-04T03:27:26.755Z,16.10
2023-05-04T03:29:55.203Z,16.30
2023-05-04T03:32:26.784Z,16.30
2023-05-04T03:34:55.454Z,16.20
2023-05-04T03:37:25.434Z,16.00
2023-05-04T03:39:53.785Z,16.20
2023-05-04T03:42:22.594Z,16.10
2023-05-04T03:44:51.644Z,16.10
2023-05-04T03:47:20.403Z,16.10
2023-05-04T03:49:50.362Z,15.90
2023-05-04T03:52:18.680Z,15.60
2023-05-04T03:54:48.516Z,15.60
2023-05-04T03:57:17.800Z,15.80
2023-05-04T03:59:47.388Z,16.00
2023-05-04T04:02:20.482Z,15.80
2023-05-04T04:04:50.577Z,15.70
2023-05-04T04:07:19.549Z,15.70
2023-05-04T04:09:47.855Z,15.50
2023-05-04T04:12:19.063Z,15.60
2023-05-04T04:14:48.777Z,15.60
2023-05-04T04:17:17.887Z,15.50
2023-05-04T04:19:46.728Z,15.60
2023-05-04T04:22:17.262Z,15.70
2023-05-04T04:24:46.645Z,15.70
2023-05-04T04:27:15.566Z,15.80
2023-05-04T04:29:44.274Z,15.80
2023-05-04T04:32:13.635Z,15.90
2023-05-04T04:34:41.965Z,15.90
2023-05-04T04:37:11.227Z,15.90
2023-05-04T04:39:43.113Z,15.90
2023-05-04T04:42:12.939Z,16.00
2023-05-04T04:44:42.480Z,15.90
2023-05-04T04:47:11.668Z,15.90
2023-05-04T04:49:40.980Z,15.90
2023-05-04T04:52:09.715Z,16.00
2023-05-04T04:54:39.100Z,16.10
2023-05-04T04:57:10.552Z,16.10
2023-05-04T04:59:39.524Z,16.00
2023-05-04T05:02:08.473Z,16.00
2023-05-04T05:04:38.131Z,16.10
2023-05-04T05:07:09.162Z,16.30
2023-05-04T05:09:38.000Z,16.20
2023-05-04T05:12:06.697Z,16.30
2023-05-04T05:14:36.776Z,16.30
2023-05-04T05:17:05.626Z,16.30
2023-05-04T05:19:37.975Z,16.30
2023-05-04T05:22:07.198Z,16.30
2023-05-04T05:24:35.624Z,16.30
2023-05-04T05:27:04.251Z,16.30
2023-05-04T05:29:32.868Z,16.40
2023-05-04T05:32:02.614Z,16.40
2023-05-04T05:34:30.598Z,16.40
2023-05-04T05:36:58.663Z,16.40
2023-05-04T05:39:26.721Z,16.40
2023-05-04T05:41:57.823Z,16.40
2023-05-04T05:44:26.094Z,16.40
2023-05-04T05:46:54.342Z,16.40
2023-05-04T05:49:24.008Z,16.50
2023-05-04T05:51:51.984Z,16.50
2023-05-04T05:54:22.022Z,16.50
2023-05-04T05:56:50.090Z,16.60
2023-05-04T05:59:18.395Z,16.70
2023-05-04T06:01:46.437Z,16.70
2023-05-04T06:04:14.819Z,16.70
2023-05-04T06:06:45.883Z,16.80
2023-05-04T06:09:14.433Z,16.90
2023-05-04T06:11:42.410Z,16.90
2023-05-04T06:14:10.570Z,17.00
2023-05-04T06:16:38.919Z,17.00
2023-05-04T06:19:07.713Z,17.00
2023-05-04T06:21:35.835Z,17.10
2023-05-04T06:24:06.217Z,17.20
2023-05-04T06:26:34.373Z,17.10
2023-05-04T06:29:02.411Z,17.20
2023-05-04T06:31:30.758Z,17.10
2023-05-04T06:33:58.870Z,17.00
2023-05-04T06:36:27.148Z,16.90
2023-05-04T06:38:58.375Z,16.80
2023-05-04T06:41:28.454Z,16.90
2023-05-04T06:43:58.846Z,16.90
2023-05-04T06:46:27.551Z,17.00
2023-05-04T06:48:55.636Z,17.20
2023-05-04T06:51:23.805Z,17.30
2023-05-04T06:53:51.998Z,17.40
2023-05-04T06:56:20.216Z,17.50
2023-05-04T06:58:50.518Z,17.60
2023-05-04T07:01:18.732Z,17.70
2023-05-04T07:03:46.887Z,17.70
2023-05-04T07:06:15.009Z,17.80
2023-05-04T07:08:43.350Z,17.90
2023-05-04T07:11:12.099Z,17.90
2023-05-04T07:13:40.199Z,17.90
2023-05-04T07:16:10.362Z,18.00
2023-05-04T07:18:39.276Z,18.10
2023-05-04T07:23:44.691Z,18.20
2023-05-04T07:26:12.656Z,18.30
2023-05-04T07:28:44.010Z,18.30
2023-05-04T07:31:14.617Z,18.40
2023-05-04T07:33:42.978Z,18.50
2023-05-04T07:36:10.945Z,18.50
2023-05-04T07:38:39.047Z,18.60
2023-05-04T07:41:07.667Z,18.70
2023-05-04T07:43:35.616Z,18.80
2023-05-04T07:46:03.683Z,18.90
2023-05-04T07:48:34.335Z,18.90
2023-05-04T07:51:02.336Z,19.00
2023-05-04T07:53:30.415Z,19.00
2023-05-04T07:56:01.118Z,19.10
2023-05-04T07:58:29.126Z,19.20
2023-05-04T08:00:57.086Z,19.30
2023-05-04T08:03:25.216Z,19.40
2023-05-04T08:05:54.650Z,19.50
2023-05-04T08:08:22.641Z,19.50
2023-05-04T08:10:50.676Z,19.60
2023-05-04T08:13:18.867Z,19.60
2023-05-04T08:15:46.765Z,19.60
2023-05-04T08:18:14.916Z,19.60
2023-05-04T08:20:42.826Z,19.60
2023-05-04T08:23:12.317Z,19.70
2023-05-04T08:25:40.249Z,19.80
2023-05-04T08:28:08.260Z,19.80
2023-05-04T08:30:36.138Z,19.80
2023-05-04T08:33:04.274Z,19.90
2023-05-04T08:35:32.212Z,20.00
2023-05-04T08:38:01.645Z,20.20
2023-05-04T08:40:31.297Z,20.30
2023-05-04T08:42:59.172Z,20.50
2023-05-04T08:45:27.690Z,20.60
2023-05-04T08:47:55.643Z,20.50
2023-05-04T08:50:24.115Z,20.60
2023-05-04T08:52:52.594Z,20.70
2023-05-04T08:55:21.394Z,20.80
2023-05-04T08:57:51.391Z,20.80
2023-05-04T09:00:20.578Z,20.90
2023-05-04T09:02:50.450Z,21.00
2023-05-04T09:05:19.758Z,21.10
2023-05-04T09:07:51.212Z,21.10
2023-05-04T09:10:19.450Z,21.10
2023-05-04T09:12:48.069Z,21.20
2023-05-04T09:15:19.267Z,21.10
2023-05-04T09:17:58.017Z,21.20
2023-05-04T09:20:26.681Z,21.30
2023-05-04T09:23:07.162Z,21.50
2023-05-04T09:25:35.804Z,21.60
2023-05-04T09:28:03.805Z,21.50
2023-05-04T09:30:33.981Z,21.30
2023-05-04T09:33:03.453Z,21.40
2023-05-04T09:35:33.703Z,21.40
2023-05-04T09:38:02.573Z,21.50
2023-05-04T09:40:36.733Z,21.70
2023-05-04T09:43:05.210Z,21.90
2023-05-04T09:45:45.673Z,22.10
2023-05-04T09:48:17.936Z,22.20
2023-05-04T09:50:51.364Z,22.20
2023-05-04T09:53:22.099Z,22.20
2023-05-04T09:56:03.391Z,22.20
2023-05-04T09:58:33.182Z,22.30
2023-05-04T10:01:03.612Z,22.30
2023-05-04T10:03:32.230Z,22.20
2023-05-04T10:06:00.977Z,22.40
2023-05-04T10:08:29.418Z,22.50
2023-05-04T10:10:58.288Z,22.60
2023-05-04T10:13:26.707Z,22.70
2023-05-04T10:16:25.165Z,22.80
2023-05-04T10:19:18.452Z,23.00
2023-05-04T10:22:00.039Z,22.70
2023-05-04T10:24:44.998Z,22.80
2023-05-04T10:27:15.785Z,23.10
2023-05-04T10:29:48.643Z,23.40
2023-05-04T10:32:22.510Z,23.30
2023-05-04T10:34:51.675Z,23.10
2023-05-04T10:37:22.083Z,23.10
2023-05-04T10:39:54.444Z,23.40
2023-05-04T10:42:22.954Z,23.70
2023-05-04T10:44:53.423Z,23.50
2023-05-04T10:47:34.022Z,23.30
2023-05-04T10:50:04.831Z,23.50
2023-05-04T10:52:33.623Z,23.80
2023-05-04T10:55:05.796Z,23.70
2023-05-04T10:57:34.138Z,23.90
2023-05-04T11:00:02.059Z,24.10
2023-05-04T11:02:33.235Z,24.30
2023-05-04T11:05:06.083Z,24.60
2023-05-04T11:07:37.884Z,24.80
2023-05-04T11:10:06.932Z,24.60
2023-05-04T11:12:35.411Z,24.60
2023-05-04T11:15:08.401Z,24.70
2023-05-04T11:17:46.098Z,24.90
2023-05-04T11:20:21.575Z,24.90
2023-05-04T11:22:50.518Z,24.80
2023-05-04T11:25:27.099Z,24.90
2023-05-04T11:27:55.268Z,24.90
2023-05-04T11:30:31.850Z,24.90
2023-05-04T11:33:02.305Z,25.10
2023-05-04T11:35:30.542Z,25.10
2023-05-04T11:37:58.890Z,25.10
2023-05-04T11:40:28.199Z,25.30
2023-05-04T11:42:57.934Z,25.60
2023-05-04T11:45:28.936Z,25.50
2023-05-04T11:47:57.863Z,25.60
2023-05-04T11:50:28.633Z,25.80
2023-05-04T11:53:05.806Z,26.00
2023-05-04T11:55:35.265Z,25.90
2023-05-04T11:58:04.864Z,25.80
2023-05-04T12:00:39.959Z,25.80
2023-05-04T12:03:10.284Z,26.00
2023-05-04T12:05:46.910Z,26.20
2023-05-04T12:08:24.524Z,26.30
2023-05-04T12:10:53.691Z,26.50
2023-05-04T12:13:21.735Z,26.50
2023-05-04T12:15:50.113Z,26.40
2023-05-04T12:18:29.894Z,26.40
2023-05-04T12:21:08.868Z,26.20
2023-05-04T12:23:37.099Z,26.30
2023-05-04T12:26:05.482Z,26.30
2023-05-04T12:28:34.101Z,26.40
2023-05-04T12:31:02.418Z,26.70
2023-05-04T12:33:30.625Z,26.70
2023-05-04T12:36:03.441Z,26.80
2023-05-04T12:38:32.153Z,27.00
2023-05-04T12:41:02.697Z,27.00
2023-05-04T12:43:31.458Z,27.00
2023-05-04T12:45:59.853Z,26.90
2023-05-04T12:48:33.148Z,26.70
2023-05-04T12:51:05.338Z,26.60
2023-05-04T12:53:33.656Z,27.00
2023-05-04T12:56:02.579Z,27.20
2023-05-04T12:58:31.528Z,26.90
2023-05-04T13:01:00.074Z,26.70
2023-05-04T13:03:28.589Z,26.80
2023-05-04T13:05:58.202Z,26.50
2023-05-04T13:08:27.912Z,26.70
2023-05-04T13:10:56.170Z,26.90
2023-05-04T13:13:28.846Z,27.10
2023-05-04T13:15:57.612Z,27.00
2023-05-04T13:18:28.290Z,27.10
2023-05-04T13:20:57.237Z,27.20
2023-05-04T13:23:27.117Z,27.80
2023-05-04T13:25:56.032Z,28.10
2023-05-04T13:28:24.201Z,28.30
2023-05-04T13:30:52.629Z,28.20
2023-05-04T13:33:28.845Z,28.20
2023-05-04T13:35:58.658Z,28.30
2023-05-04T13:38:28.583Z,28.50
2023-05-04T13:40:56.841Z,28.60
2023-05-04T13:43:25.287Z,28.70
2023-05-04T13:45:53.622Z,28.60
2023-05-04T13:48:21.894Z,28.90
2023-05-04T13:50:50.337Z,29.40
2023-05-04T13:53:18.452Z,29.10
2023-05-04T13:55:48.051Z,29.00
2023-05-04T13:58:16.217Z,29.20
2023-05-04T14:00:44.430Z,29.50
2023-05-04T14:03:13.057Z,29.60
2023-05-04T14:05:41.990Z,29.20
2023-05-04T14:08:10.191Z,28.90
2023-05-04T14:10:38.544Z,28.70
2023-05-04T14:13:08.901Z,29.10
2023-05-04T14:15:37.395Z,29.20
2023-05-04T14:18:05.557Z,29.40
2023-05-04T14:20:35.178Z,29.40
2023-05-04T14:23:03.394Z,29.40
2023-05-04T14:25:31.597Z,29.50
2023-05-04T14:27:59.767Z,29.60
2023-05-04T14:30:29.307Z,29.50
2023-05-04T14:32:58.502Z,29.50
2023-05-04T14:35:26.688Z,29.70
2023-05-04T14:37:54.976Z,29.60
2023-05-04T14:40:23.123Z,29.90
2023-05-04T14:42:51.318Z,29.70
2023-05-04T14:45:20.627Z,29.70
2023-05-04T14:47:50.427Z,29.80
2023-05-04T14:50:18.773Z,29.80
2023-05-04T14:52:47.151Z,30.00
2023-05-04T14:55:15.129Z,30.00
2023-05-04T14:57:43.320Z,29.90
2023-05-04T15:00:12.380Z,29.70
2023-05-04T15:02:40.661Z,29.70
2023-05-04T15:05:12.818Z,30.00
2023-05-04T15:07:41.290Z,30.00
2023-05-04T15:10:10.755Z,30.20
2023-05-04T15:12:40.391Z,30.30
2023-05-04T15:15:10.265Z,30.50
2023-05-04T15:17:38.588Z,30.50
2023-05-04T15:20:07.976Z,30.60
2023-05-04T15:22:37.688Z,30.50
2023-05-04T15:25:06.038Z,30.20
2023-05-04T15:27:34.306Z,30.00
2023-05-04T15:30:02.249Z,30.00
2023-05-04T15:32:30.494Z,29.90
2023-05-04T15:35:05.471Z,30.20
2023-05-04T15:37:34.617Z,30.40
2023-05-04T15:40:04.997Z,30.20
2023-05-04T15:42:33.505Z,30.20
2023-05-04T15:45:02.283Z,30.50
2023-05-04T15:47:30.844Z,30.40
2023-05-04T15:49:58.902Z,30.50
2023-05-04T15:52:27.056Z,30.50
2023-05-04T15:54:55.002Z,30.60
2023-05-04T15:57:24.523Z,30.20
2023-05-04T15:59:52.882Z,30.50
2023-05-04T16:02:21.160Z,30.70
2023-05-04T16:04:49.108Z,30.50
2023-05-04T16:07:17.756Z,30.10
2023-05-04T16:09:45.701Z,29.60
2023-05-04T16:12:13.646Z,29.90
2023-05-04T16:14:43.216Z,29.80
2023-05-04T16:17:11.480Z,30.20
2023-05-04T16:19:39.802Z,30.50
2023-05-04T16:22:07.893Z,30.70
2023-05-04T16:24:36.347Z,31.30
2023-05-04T16:27:04.521Z,31.50
2023-05-04T16:29:32.436Z,30.80
2023-05-04T16:32:01.952Z,31.20
2023-05-04T16:34:29.962Z,31.30
2023-05-04T16:36:58.076Z,31.50
2023-05-04T16:39:30.396Z,31.90
2023-05-04T16:41:58.680Z,31.70
2023-05-04T16:44:26.866Z,31.30
2023-05-04T16:46:55.077Z,31.30
2023-05-04T16:49:24.631Z,31.70
2023-05-04T16:51:56.022Z,30.90
2023-05-04T16:54:24.683Z,31.20
2023-05-04T16:56:52.751Z,31.90
2023-05-04T16:59:20.972Z,31.70
2023-05-04T17:01:49.037Z,31.20
2023-05-04T17:04:17.316Z,30.90
2023-05-04T17:06:46.751Z,30.80
2023-05-04T17:09:14.741Z,30.90
2023-05-04T17:11:42.710Z,30.80
2023-05-04T17:14:11.298Z,30.70
2023-05-04T17:16:39.613Z,30.20
2023-05-04T17:19:09.534Z,29.50
2023-05-04T17:21:39.093Z,29.60
2023-05-04T17:24:08.667Z,30.00
2023-05-04T17:26:36.664Z,29.30
2023-05-04T17:29:04.725Z,28.30
2023-05-04T17:31:32.906Z,26.70
2023-05-04T17:34:02.673Z,25.70
2023-05-04T17:36:31.788Z,25.30
2023-05-04T17:39:00.419Z,24.60
2023-05-04T17:41:30.181Z,24.30
2023-05-04T17:43:58.402Z,24.00
2023-05-04T17:46:26.596Z,23.90
2023-05-04T17:48:55.028Z,23.50
2023-05-04T17:51:23.417Z,23.10
2023-05-04T17:53:51.438Z,23.00
2023-05-04T17:56:21.487Z,23.00
2023-05-04T17:58:51.185Z,22.70
2023-05-04T18:01:19.280Z,22.50
2023-05-04T18:03:47.489Z,22.50
2023-05-04T18:06:16.627Z,22.40
2023-05-04T18:08:44.597Z,22.30
2023-05-04T18:11:12.912Z,22.10
2023-05-04T18:13:41.022Z,22.00
2023-05-04T18:16:10.931Z,22.00
2023-05-04T18:18:38.917Z,21.80
2023-05-04T18:21:06.872Z,21.70
2023-05-04T18:23:34.665Z,21.60
2023-05-04T18:26:02.886Z,21.40
2023-05-04T18:28:30.895Z,21.20
2023-05-04T18:30:59.047Z,21.10
2023-05-04T18:33:28.647Z,21.00
2023-05-04T18:35:56.706Z,20.90
2023-05-04T18:38:26.577Z,20.90
2023-05-04T18:40:54.777Z,20.80
2023-05-04T18:43:23.061Z,20.80
2023-05-04T18:45:51.175Z,20.70
2023-05-04T18:48:19.445Z,20.60
2023-05-04T18:50:56.487Z,20.40
2023-05-04T18:53:24.650Z,20.30
2023-05-04T18:56:03.228Z,20.30
2023-05-04T18:58:31.535Z,20.20
2023-05-04T19:01:00.091Z,20.10
2023-05-04T19:03:28.580Z,20.10
2023-05-04T19:05:58.103Z,20.00
2023-05-04T19:08:26.250Z,20.00
2023-05-04T19:10:58.462Z,20.00
2023-05-04T19:13:26.883Z,19.90
2023-05-04T19:15:55.023Z,19.80
2023-05-04T19:18:24.849Z,19.70
2023-05-04T19:20:53.187Z,19.80
2023-05-04T19:23:23.060Z,19.90
2023-05-04T19:25:51.486Z,19.90
2023-05-04T19:28:20.111Z,19.90
2023-05-04T19:30:49.434Z,19.80
2023-05-04T19:33:17.545Z,19.80
2023-05-04T19:35:46.195Z,19.80
2023-05-04T19:38:14.325Z,19.60
2023-05-04T19:40:44.115Z,19.70
2023-05-04T19:43:12.454Z,19.60
2023-05-04T19:45:41.460Z,19.50
2023-05-04T19:48:13.393Z,19.50
2023-05-04T19:50:41.647Z,19.40
2023-05-04T19:53:09.821Z,19.30
2023-05-04T19:55:38.000Z,19.30
2023-05-04T19:58:07.856Z,19.40
2023-05-04T20:00:36.275Z,19.20
2023-05-04T20:03:05.263Z,19.20
2023-05-04T20:05:33.592Z,19.20
2023-05-04T20:08:04.108Z,19.10
2023-05-04T20:10:33.382Z,19.10
2023-05-04T20:13:01.573Z,19.00
2023-05-04T20:15:31.462Z,19.00
2023-05-04T20:17:59.712Z,18.90
2023-05-04T20:20:28.052Z,19.00
2023-05-04T20:22:56.402Z,18.90
2023-05-04T20:25:24.990Z,18.90
2023-05-04T20:27:55.221Z,18.90
2023-05-04T20:30:24.111Z,19.00
2023-05-04T20:32:53.813Z,18.90
2023-05-04T20:35:22.823Z,18.90
2023-05-04T20:37:51.196Z,18.90
2023-05-04T20:40:20.141Z,18.90
2023-05-04T20:42:48.352Z,18.80
2023-05-04T20:45:16.489Z,18.90
2023-05-04T20:47:44.693Z,19.00
2023-05-04T20:50:16.852Z,18.90
2023-05-04T20:52:45.272Z,18.80
2023-05-04T20:55:13.516Z,18.90
2023-05-04T20:57:41.828Z,19.10
2023-05-04T21:00:11.639Z,19.10
2023-05-04T21:02:40.259Z,19.10
2023-05-04T21:05:08.996Z,19.30
2023-05-04T21:07:38.876Z,19.30
2023-05-04T21:10:08.700Z,19.40
2023-05-04T21:12:37.283Z,19.60
2023-05-04T21:15:07.881Z,19.80
2023-05-04T21:17:36.680Z,20.00
2023-05-04T21:20:06.532Z,20.00
2023-05-04T21:22:35.801Z,20.00
2023-05-04T21:25:06.583Z,20.00
2023-05-04T21:27:35.360Z,20.00
2023-05-04T21:30:05.478Z,20.10
2023-05-04T21:32:34.780Z,20.00
2023-05-04T21:35:04.832Z,20.00
2023-05-04T21:37:34.407Z,20.00
2023-05-04T21:40:06.917Z,19.90
2023-05-04T21:42:36.235Z,19.90
2023-05-04T21:45:06.216Z,19.90
2023-05-04T21:47:35.065Z,19.90
2023-05-04T21:50:05.961Z,19.90
2023-05-04T21:52:35.404Z,19.90
2023-05-04T21:55:06.912Z,19.80
2023-05-04T21:57:36.133Z,19.60
2023-05-04T22:00:12.644Z,19.60
2023-05-04T22:02:41.947Z,19.50
2023-05-04T22:05:11.766Z,19.40
2023-05-04T22:07:40.728Z,19.40
2023-05-04T22:10:12.817Z,19.40
2023-05-04T22:12:41.949Z,19.40
2023-05-04T22:15:12.267Z,19.40
2023-05-04T22:17:41.623Z,19.30
2023-05-04T22:20:11.972Z,19.40
2023-05-04T22:22:40.690Z,19.30
2023-05-04T22:25:11.933Z,19.20
2023-05-04T22:27:42.956Z,19.20
2023-05-04T22:30:13.040Z,19.30
2023-05-04T22:32:42.562Z,19.40
2023-05-04T22:35:11.751Z,19.30
2023-05-04T22:37:40.599Z,19.20
2023-05-04T22:40:12.460Z,19.20
2023-05-04T22:42:42.179Z,19.10
2023-05-04T22:45:13.329Z,19.20
2023-05-04T22:47:42.930Z,19.10
2023-05-04T22:50:12.037Z,19.20
2023-05-04T22:52:41.644Z,19.10
2023-05-04T22:55:12.335Z,19.00
2023-05-04T22:57:41.943Z,19.10
2023-05-04T23:00:11.651Z,19.10
2023-05-04T23:02:40.453Z,19.10
2023-05-04T23:05:09.680Z,19.10
2023-05-04T23:07:37.902Z,19.00
2023-05-04T23:10:07.206Z,19.00
2023-05-04T23:12:37.159Z,18.80
2023-05-04T23:15:06.959Z,18.80
2023-05-04T23:17:38.572Z,18.70
2023-05-04T23:20:08.456Z,18.70
2023-05-04T23:22:37.062Z,18.70
2023-05-04T23:25:05.859Z,18.70
2023-05-04T23:27:35.536Z,18.60
2023-05-04T23:30:03.947Z,18.50
2023-05-04T23:32:32.165Z,18.50
2023-05-04T23:35:00.547Z,18.50
2023-05-04T23:37:32.393Z,18.50
2023-05-04T23:40:00.820Z,18.50
2023-05-04T23:42:28.917Z,18.50
2023-05-04T23:44:58.442Z,18.50
2023-05-04T23:47:26.413Z,18.40
2023-05-04T23:50:00.342Z,18.30
2023-05-04T23:52:28.479Z,18.20
2023-05-04T23:55:22.057Z,18.10
2023-05-04T23:57:50.175Z,18.00
